sensor_id;sensor_type;location;lat;lon;timestamp;P1;durP1;ratioP1;P2;durP2;ratioP2
7193;SDS011;3638;48.820;9.244;2023-05-07T00:01:41;6.57;;;4.57;;
7193;SDS011;3638;48.820;9.244;2023-05-07T00:04:08;5.27;;;4.03;;
7193;SDS011;3638;48.820;9.244;2023-05-07T00:06:35;5.77;;;4.63;;
7193;SDS011;3638;48.820;9.244;2023-05-07T00:09:02;6.33;;;4.67;;
7193;SDS011;3638;48.820;9.244;2023-05-07T00:11:29;4.83;;;4.23;;
7193;SDS011;3638;48.820;9.244;2023-05-07T00:13:56;5.27;;;4.77;;
7193;SDS011;3638;48.820;9.244;2023-05-07T00:16:24;5.25;;;4.63;;
7193;SDS011;3638;48.820;9.244;2023-05-07T00:18:52;6.77;;;4.67;;
7193;SDS011;3638;48.820;9.244;2023-05-07T00:21:18;6.00;;;4.50;;
7193;SDS011;3638;48.820;9.244;2023-05-07T00:23:46;6.70;;;4.50;;
7193;SDS011;3638;48.820;9.244;2023-05-07T00:26:13;6.33;;;4.43;;
7193;SDS011;3638;48.820;9.244;2023-05-07T00:28:40;4.60;;;4.20;;
7193;SDS011;3638;48.820;9.244;2023-05-07T00:31:07;4.83;;;4.10;;
7193;SDS011;3638;48.820;9.244;2023-05-07T00:33:35;5.10;;;4.60;;
7193;SDS011;3638;48.820;9.244;2023-05-07T00:36:04;6.57;;;4.47;;
7193;SDS011;3638;48.820;9.244;2023-05-07T00:38:31;6.20;;;4.35;;
7193;SDS011;3638;48.820;9.244;2023-05-07T00:40:58;5.03;;;4.10;;
7193;SDS011;3638;48.820;9.244;2023-05-07T00:43:27;4.90;;;4.50;;
7193;SDS011;3638;48.820;9.244;2023-05-07T00:45:54;5.40;;;4.60;;
7193;SDS011;3638;48.820;9.244;2023-05-07T00:48:21;5.20;;;4.70;;
7193;SDS011;3638;48.820;9.244;2023-05-07T00:50:50;5.23;;;4.33;;
7193;SDS011;3638;48.820;9.244;2023-05-07T00:53:17;6.17;;;4.70;;
7193;SDS011;3638;48.820;9.244;2023-05-07T00:55:44;5.63;;;4.60;;
7193;SDS011;3638;48.820;9.244;2023-05-07T00:58:11;5.00;;;4.50;;
7193;SDS011;3638;48.820;9.244;2023-05-07T01:00:38;6.72;;;4.63;;
7193;SDS011;3638;48.820;9.244;2023-05-07T01:03:05;4.80;;;4.30;;
7193;SDS011;3638;48.820;9.244;2023-05-07T01:05:32;6.97;;;4.40;;
7193;SDS011;3638;48.820;9.244;2023-05-07T01:08:01;4.70;;;4.30;;
7193;SDS011;3638;48.820;9.244;2023-05-07T01:10:29;4.63;;;4.20;;
7193;SDS011;3638;48.820;9.244;2023-05-07T01:12:57;4.20;;;3.90;;
7193;SDS011;3638;48.820;9.244;2023-05-07T01:15:25;6.47;;;4.30;;
7193;SDS011;3638;48.820;9.244;2023-05-07T01:17:52;5.07;;;4.40;;
7193;SDS011;3638;48.820;9.244;2023-05-07T01:20:19;5.57;;;4.47;;
7193;SDS011;3638;48.820;9.244;2023-05-07T01:22:48;5.20;;;4.47;;
7193;SDS011;3638;48.820;9.244;2023-05-07T01:25:16;4.43;;;3.93;;
7193;SDS011;3638;48.820;9.244;2023-05-07T01:27:43;5.33;;;4.50;;
7193;SDS011;3638;48.820;9.244;2023-05-07T01:30:10;5.30;;;4.80;;
7193;SDS011;3638;48.820;9.244;2023-05-07T01:32:38;5.33;;;4.10;;
7193;SDS011;3638;48.820;9.244;2023-05-07T01:35:12;5.30;;;4.80;;
7193;SDS011;3638;48.820;9.244;2023-05-07T01:37:43;4.70;;;4.30;;
7193;SDS011;3638;48.820;9.244;2023-05-07T01:40:12;4.73;;;4.20;;
7193;SDS011;3638;48.820;9.244;2023-05-07T01:42:39;5.23;;;4.30;;
7193;SDS011;3638;48.820;9.244;2023-05-07T01:45:08;5.90;;;5.10;;
7193;SDS011;3638;48.820;9.244;2023-05-07T01:47:36;6.90;;;4.60;;
7193;SDS011;3638;48.820;9.244;2023-05-07T01:50:04;6.80;;;4.20;;
7193;SDS011;3638;48.820;9.244;2023-05-07T01:52:33;4.53;;;4.13;;
7193;SDS011;3638;48.820;9.244;2023-05-07T01:55:01;4.50;;;3.93;;
7193;SDS011;3638;48.820;9.244;2023-05-07T01:57:29;4.87;;;4.37;;
7193;SDS011;3638;48.820;9.244;2023-05-07T01:59:56;4.93;;;4.20;;
7193;SDS011;3638;48.820;9.244;2023-05-07T02:02:23;6.27;;;4.60;;
7193;SDS011;3638;48.820;9.244;2023-05-07T02:04:51;5.00;;;4.23;;
7193;SDS011;3638;48.820;9.244;2023-05-07T02:07:17;5.33;;;4.20;;
7193;SDS011;3638;48.820;9.244;2023-05-07T02:09:44;5.43;;;4.77;;
7193;SDS011;3638;48.820;9.244;2023-05-07T02:12:11;5.70;;;4.53;;
7193;SDS011;3638;48.820;9.244;2023-05-07T02:14:39;5.43;;;4.10;;
7193;SDS011;3638;48.820;9.244;2023-05-07T02:17:07;4.97;;;4.00;;
7193;SDS011;3638;48.820;9.244;2023-05-07T02:19:34;6.30;;;4.23;;
7193;SDS011;3638;48.820;9.244;2023-05-07T02:22:01;4.67;;;4.23;;
7193;SDS011;3638;48.820;9.244;2023-05-07T02:24:28;5.50;;;4.77;;
7193;SDS011;3638;48.820;9.244;2023-05-07T02:26:55;4.87;;;4.03;;
7193;SDS011;3638;48.820;9.244;2023-05-07T02:29:22;4.77;;;4.23;;
7193;SDS011;3638;48.820;9.244;2023-05-07T02:31:50;5.07;;;4.40;;
7193;SDS011;3638;48.820;9.244;2023-05-07T02:34:18;5.23;;;4.20;;
7193;SDS011;3638;48.820;9.244;2023-05-07T02:36:45;4.20;;;3.80;;
7193;SDS011;3638;48.820;9.244;2023-05-07T02:39:12;4.40;;;4.00;;
7193;SDS011;3638;48.820;9.244;2023-05-07T02:41:40;4.23;;;3.70;;
7193;SDS011;3638;48.820;9.244;2023-05-07T02:44:07;4.30;;;3.80;;
7193;SDS011;3638;48.820;9.244;2023-05-07T02:46:34;4.83;;;4.00;;
7193;SDS011;3638;48.820;9.244;2023-05-07T02:49:02;6.07;;;4.13;;
7193;SDS011;3638;48.820;9.244;2023-05-07T02:51:29;4.47;;;4.07;;
7193;SDS011;3638;48.820;9.244;2023-05-07T02:53:57;4.77;;;4.23;;
7193;SDS011;3638;48.820;9.244;2023-05-07T02:56:25;4.53;;;4.07;;
7193;SDS011;3638;48.820;9.244;2023-05-07T02:58:52;7.57;;;4.30;;
7193;SDS011;3638;48.820;9.244;2023-05-07T03:01:19;4.60;;;4.20;;
7193;SDS011;3638;48.820;9.244;2023-05-07T03:03:46;5.27;;;4.77;;
7193;SDS011;3638;48.820;9.244;2023-05-07T03:06:14;5.37;;;4.47;;
7193;SDS011;3638;48.820;9.244;2023-05-07T03:08:41;4.87;;;4.20;;
7193;SDS011;3638;48.820;9.244;2023-05-07T03:11:09;6.50;;;4.50;;
7193;SDS011;3638;48.820;9.244;2023-05-07T03:13:36;5.77;;;4.80;;
7193;SDS011;3638;48.820;9.244;2023-05-07T03:16:02;6.23;;;4.93;;
7193;SDS011;3638;48.820;9.244;2023-05-07T03:18:30;5.07;;;4.60;;
7193;SDS011;3638;48.820;9.244;2023-05-07T03:20:57;4.90;;;4.40;;
7193;SDS011;3638;48.820;9.244;2023-05-07T03:23:25;5.43;;;4.57;;
7193;SDS011;3638;48.820;9.244;2023-05-07T03:25:52;5.93;;;4.83;;
7193;SDS011;3638;48.820;9.244;2023-05-07T03:28:19;6.50;;;4.97;;
7193;SDS011;3638;48.820;9.244;2023-05-07T03:30:46;7.17;;;4.47;;
7193;SDS011;3638;48.820;9.244;2023-05-07T03:33:13;5.37;;;4.40;;
7193;SDS011;3638;48.820;9.244;2023-05-07T03:35:40;7.23;;;5.03;;
7193;SDS011;3638;48.820;9.244;2023-05-07T03:38:07;5.23;;;4.73;;
7193;SDS011;3638;48.820;9.244;2023-05-07T03:40:36;8.03;;;4.97;;
7193;SDS011;3638;48.820;9.244;2023-05-07T03:43:03;5.70;;;4.50;;
7193;SDS011;3638;48.820;9.244;2023-05-07T03:45:29;5.57;;;4.97;;
7193;SDS011;3638;48.820;9.244;2023-05-07T03:47:56;6.03;;;5.03;;
7193;SDS011;3638;48.820;9.244;2023-05-07T03:50:23;6.37;;;4.77;;
7193;SDS011;3638;48.820;9.244;2023-05-07T03:52:50;6.00;;;4.30;;
7193;SDS011;3638;48.820;9.244;2023-05-07T03:55:17;5.03;;;4.53;;
7193;SDS011;3638;48.820;9.244;2023-05-07T03:57:45;7.00;;;5.27;;
7193;SDS011;3638;48.820;9.244;2023-05-07T04:00:13;5.67;;;5.00;;
7193;SDS011;3638;48.820;9.244;2023-05-07T04:02:40;5.10;;;4.63;;
7193;SDS011;3638;48.820;9.244;2023-05-07T04:05:07;5.40;;;4.47;;
7193;SDS011;3638;48.820;9.244;2023-05-07T04:07:34;4.77;;;4.27;;
7193;SDS011;3638;48.820;9.244;2023-05-07T04:10:01;6.80;;;4.87;;
7193;SDS011;3638;48.820;9.244;2023-05-07T04:12:28;6.40;;;4.80;;
7193;SDS011;3638;48.820;9.244;2023-05-07T04:14:57;6.10;;;5.17;;
7193;SDS011;3638;48.820;9.244;2023-05-07T04:17:23;7.17;;;4.80;;
7193;SDS011;3638;48.820;9.244;2023-05-07T04:19:50;5.57;;;4.97;;
7193;SDS011;3638;48.820;9.244;2023-05-07T04:22:17;6.33;;;4.73;;
7193;SDS011;3638;48.820;9.244;2023-05-07T04:24:44;5.17;;;4.13;;
7193;SDS011;3638;48.820;9.244;2023-05-07T04:27:11;6.20;;;4.60;;
7193;SDS011;3638;48.820;9.244;2023-05-07T04:29:37;6.13;;;4.27;;
7193;SDS011;3638;48.820;9.244;2023-05-07T04:32:08;7.27;;;4.57;;
7193;SDS011;3638;48.820;9.244;2023-05-07T04:34:35;4.97;;;4.47;;
7193;SDS011;3638;48.820;9.244;2023-05-07T04:37:02;5.73;;;4.50;;
7193;SDS011;3638;48.820;9.244;2023-05-07T04:39:28;4.93;;;4.37;;
7193;SDS011;3638;48.820;9.244;2023-05-07T04:41:55;5.50;;;4.87;;
7193;SDS011;3638;48.820;9.244;2023-05-07T04:44:22;8.53;;;5.20;;
7193;SDS011;3638;48.820;9.244;2023-05-07T04:46:49;6.17;;;5.10;;
7193;SDS011;3638;48.820;9.244;2023-05-07T04:49:18;5.50;;;5.00;;
7193;SDS011;3638;48.820;9.244;2023-05-07T04:51:44;6.83;;;4.73;;
7193;SDS011;3638;48.820;9.244;2023-05-07T04:54:11;8.70;;;6.47;;
7193;SDS011;3638;48.820;9.244;2023-05-07T04:56:38;5.40;;;4.90;;
7193;SDS011;3638;48.820;9.244;2023-05-07T04:59:05;5.27;;;4.47;;
7193;SDS011;3638;48.820;9.244;2023-05-07T05:01:32;5.80;;;4.60;;
7193;SDS011;3638;48.820;9.244;2023-05-07T05:03:59;5.87;;;5.20;;
7193;SDS011;3638;48.820;9.244;2023-05-07T05:06:28;5.70;;;5.20;;
7193;SDS011;3638;48.820;9.244;2023-05-07T05:08:55;5.67;;;5.07;;
7193;SDS011;3638;48.820;9.244;2023-05-07T05:11:22;8.50;;;5.30;;
7193;SDS011;3638;48.820;9.244;2023-05-07T05:13:49;6.97;;;5.40;;
7193;SDS011;3638;48.820;9.244;2023-05-07T05:16:16;5.87;;;5.20;;
7193;SDS011;3638;48.820;9.244;2023-05-07T05:18:42;5.53;;;4.93;;
7193;SDS011;3638;48.820;9.244;2023-05-07T05:21:09;7.03;;;5.17;;
7193;SDS011;3638;48.820;9.244;2023-05-07T05:23:37;6.40;;;5.80;;
7193;SDS011;3638;48.820;9.244;2023-05-07T05:26:04;9.20;;;6.40;;
7193;SDS011;3638;48.820;9.244;2023-05-07T05:28:31;7.07;;;5.73;;
7193;SDS011;3638;48.820;9.244;2023-05-07T05:30:58;5.30;;;4.80;;
7193;SDS011;3638;48.820;9.244;2023-05-07T05:33:25;7.00;;;5.13;;
7193;SDS011;3638;48.820;9.244;2023-05-07T05:35:53;5.87;;;4.83;;
7193;SDS011;3638;48.820;9.244;2023-05-07T05:38:20;5.83;;;4.20;;
7193;SDS011;3638;48.820;9.244;2023-05-07T05:40:48;6.83;;;4.53;;
7193;SDS011;3638;48.820;9.244;2023-05-07T05:43:14;7.37;;;5.30;;
7193;SDS011;3638;48.820;9.244;2023-05-07T05:45:41;9.38;;;5.10;;
7193;SDS011;3638;48.820;9.244;2023-05-07T05:48:08;9.40;;;4.97;;
7193;SDS011;3638;48.820;9.244;2023-05-07T05:50:35;4.82;;;4.40;;
7193;SDS011;3638;48.820;9.244;2023-05-07T05:53:02;5.88;;;4.82;;
7193;SDS011;3638;48.820;9.244;2023-05-07T05:55:29;6.35;;;4.75;;
7193;SDS011;3638;48.820;9.244;2023-05-07T05:57:58;6.15;;;4.75;;
7193;SDS011;3638;48.820;9.244;2023-05-07T06:00:25;5.03;;;4.53;;
7193;SDS011;3638;48.820;9.244;2023-05-07T06:02:52;6.72;;;4.40;;
7193;SDS011;3638;48.820;9.244;2023-05-07T06:05:19;8.25;;;4.35;;
7193;SDS011;3638;48.820;9.244;2023-05-07T06:07:46;4.88;;;4.28;;
7193;SDS011;3638;48.820;9.244;2023-05-07T06:10:12;4.90;;;4.32;;
7193;SDS011;3638;48.820;9.244;2023-05-07T06:12:39;5.40;;;4.20;;
7193;SDS011;3638;48.820;9.244;2023-05-07T06:15:08;5.15;;;4.60;;
7193;SDS011;3638;48.820;9.244;2023-05-07T06:17:36;5.78;;;4.60;;
7193;SDS011;3638;48.820;9.244;2023-05-07T06:20:03;5.13;;;4.60;;
7193;SDS011;3638;48.820;9.244;2023-05-07T06:22:31;5.57;;;4.35;;
7193;SDS011;3638;48.820;9.244;2023-05-07T06:24:57;6.22;;;4.13;;
7193;SDS011;3638;48.820;9.244;2023-05-07T06:27:24;4.50;;;4.10;;
7193;SDS011;3638;48.820;9.244;2023-05-07T06:29:53;5.35;;;4.30;;
7193;SDS011;3638;48.820;9.244;2023-05-07T06:32:21;5.93;;;4.40;;
7193;SDS011;3638;48.820;9.244;2023-05-07T06:34:48;7.03;;;4.20;;
7193;SDS011;3638;48.820;9.244;2023-05-07T06:37:14;6.18;;;4.20;;
7193;SDS011;3638;48.820;9.244;2023-05-07T06:39:41;5.60;;;4.30;;
7193;SDS011;3638;48.820;9.244;2023-05-07T06:42:08;6.07;;;4.88;;
7193;SDS011;3638;48.820;9.244;2023-05-07T06:44:35;5.53;;;3.95;;
7193;SDS011;3638;48.820;9.244;2023-05-07T06:47:01;4.93;;;4.43;;
7193;SDS011;3638;48.820;9.244;2023-05-07T06:49:31;5.38;;;4.68;;
7193;SDS011;3638;48.820;9.244;2023-05-07T06:51:58;6.22;;;4.20;;
7193;SDS011;3638;48.820;9.244;2023-05-07T06:54:25;5.53;;;4.30;;
7193;SDS011;3638;48.820;9.244;2023-05-07T06:56:52;5.45;;;3.90;;
7193;SDS011;3638;48.820;9.244;2023-05-07T06:59:18;4.18;;;3.78;;
7193;SDS011;3638;48.820;9.244;2023-05-07T07:01:45;4.63;;;3.85;;
7193;SDS011;3638;48.820;9.244;2023-05-07T07:04:12;5.30;;;3.60;;
7193;SDS011;3638;48.820;9.244;2023-05-07T07:06:40;3.90;;;3.50;;
7193;SDS011;3638;48.820;9.244;2023-05-07T07:09:07;5.05;;;3.28;;
7193;SDS011;3638;48.820;9.244;2023-05-07T07:11:34;5.25;;;4.40;;
7193;SDS011;3638;48.820;9.244;2023-05-07T07:14:01;6.03;;;4.20;;
7193;SDS011;3638;48.820;9.244;2023-05-07T07:16:30;5.97;;;4.20;;
7193;SDS011;3638;48.820;9.244;2023-05-07T07:18:56;5.35;;;3.92;;
7193;SDS011;3638;48.820;9.244;2023-05-07T07:21:23;4.63;;;3.50;;
7193;SDS011;3638;48.820;9.244;2023-05-07T07:23:52;5.30;;;3.50;;
7193;SDS011;3638;48.820;9.244;2023-05-07T07:26:18;3.75;;;3.10;;
7193;SDS011;3638;48.820;9.244;2023-05-07T07:28:45;3.90;;;3.20;;
7193;SDS011;3638;48.820;9.244;2023-05-07T07:31:12;3.30;;;3.00;;
7193;SDS011;3638;48.820;9.244;2023-05-07T07:33:40;3.67;;;3.33;;
7193;SDS011;3638;48.820;9.244;2023-05-07T07:36:07;5.18;;;3.20;;
7193;SDS011;3638;48.820;9.244;2023-05-07T07:38:34;6.63;;;3.50;;
7193;SDS011;3638;48.820;9.244;2023-05-07T07:41:02;3.17;;;2.78;;
7193;SDS011;3638;48.820;9.244;2023-05-07T07:43:29;3.67;;;3.08;;
7193;SDS011;3638;48.820;9.244;2023-05-07T07:45:56;4.70;;;2.53;;
7193;SDS011;3638;48.820;9.244;2023-05-07T07:48:23;2.80;;;2.55;;
7193;SDS011;3638;48.820;9.244;2023-05-07T07:50:50;2.15;;;1.95;;
7193;SDS011;3638;48.820;9.244;2023-05-07T07:53:17;4.75;;;2.50;;
7193;SDS011;3638;48.820;9.244;2023-05-07T07:55:44;2.85;;;2.63;;
7193;SDS011;3638;48.820;9.244;2023-05-07T07:58:13;2.63;;;2.40;;
7193;SDS011;3638;48.820;9.244;2023-05-07T08:00:39;4.50;;;3.38;;
7193;SDS011;3638;48.820;9.244;2023-05-07T08:03:08;3.17;;;2.60;;
7193;SDS011;3638;48.820;9.244;2023-05-07T08:05:36;3.08;;;2.70;;
7193;SDS011;3638;48.820;9.244;2023-05-07T08:08:03;3.80;;;3.20;;
7193;SDS011;3638;48.820;9.244;2023-05-07T08:10:30;3.95;;;3.28;;
7193;SDS011;3638;48.820;9.244;2023-05-07T08:12:59;3.95;;;3.17;;
7193;SDS011;3638;48.820;9.244;2023-05-07T08:15:28;3.75;;;3.38;;
7193;SDS011;3638;48.820;9.244;2023-05-07T08:17:54;3.42;;;3.00;;
7193;SDS011;3638;48.820;9.244;2023-05-07T08:20:22;5.47;;;4.50;;
7193;SDS011;3638;48.820;9.244;2023-05-07T08:22:49;4.60;;;3.45;;
7193;SDS011;3638;48.820;9.244;2023-05-07T08:25:16;3.20;;;3.00;;
7193;SDS011;3638;48.820;9.244;2023-05-07T08:27:43;3.60;;;3.30;;
7193;SDS011;3638;48.820;9.244;2023-05-07T08:30:10;4.68;;;3.45;;
7193;SDS011;3638;48.820;9.244;2023-05-07T08:32:40;8.23;;;3.33;;
7193;SDS011;3638;48.820;9.244;2023-05-07T08:35:07;5.57;;;3.50;;
7193;SDS011;3638;48.820;9.244;2023-05-07T08:37:34;4.13;;;2.95;;
7193;SDS011;3638;48.820;9.244;2023-05-07T08:40:01;4.97;;;3.20;;
7193;SDS011;3638;48.820;9.244;2023-05-07T08:42:29;5.93;;;3.47;;
7193;SDS011;3638;48.820;9.244;2023-05-07T08:44:57;4.95;;;3.30;;
7193;SDS011;3638;48.820;9.244;2023-05-07T08:47:28;3.97;;;3.15;;
7193;SDS011;3638;48.820;9.244;2023-05-07T08:50:01;3.88;;;3.53;;
7193;SDS011;3638;48.820;9.244;2023-05-07T08:52:28;3.30;;;3.00;;
7193;SDS011;3638;48.820;9.244;2023-05-07T08:54:55;4.53;;;3.25;;
7193;SDS011;3638;48.820;9.244;2023-05-07T08:57:22;3.80;;;3.40;;
7193;SDS011;3638;48.820;9.244;2023-05-07T08:59:49;4.50;;;3.22;;
7193;SDS011;3638;48.820;9.244;2023-05-07T09:02:16;4.25;;;3.13;;
7193;SDS011;3638;48.820;9.244;2023-05-07T09:04:43;3.35;;;3.05;;
7193;SDS011;3638;48.820;9.244;2023-05-07T09:07:11;3.47;;;2.90;;
7193;SDS011;3638;48.820;9.244;2023-05-07T09:09:38;3.33;;;2.90;;
7193;SDS011;3638;48.820;9.244;2023-05-07T09:12:05;4.28;;;2.95;;
7193;SDS011;3638;48.820;9.244;2023-05-07T09:14:32;3.17;;;2.85;;
7193;SDS011;3638;48.820;9.244;2023-05-07T09:16:59;3.60;;;2.88;;
7193;SDS011;3638;48.820;9.244;2023-05-07T09:19:26;3.40;;;3.10;;
7193;SDS011;3638;48.820;9.244;2023-05-07T09:21:59;3.33;;;2.90;;
7193;SDS011;3638;48.820;9.244;2023-05-07T09:24:28;6.80;;;3.08;;
7193;SDS011;3638;48.820;9.244;2023-05-07T09:26:59;5.05;;;3.03;;
7193;SDS011;3638;48.820;9.244;2023-05-07T09:29:27;3.90;;;2.53;;
7193;SDS011;3638;48.820;9.244;2023-05-07T09:31:55;5.03;;;2.50;;
7193;SDS011;3638;48.820;9.244;2023-05-07T09:34:22;2.60;;;2.40;;
7193;SDS011;3638;48.820;9.244;2023-05-07T09:36:49;2.90;;;2.28;;
7193;SDS011;3638;48.820;9.244;2023-05-07T09:39:16;4.55;;;2.13;;
7193;SDS011;3638;48.820;9.244;2023-05-07T09:41:44;4.40;;;2.00;;
7193;SDS011;3638;48.820;9.244;2023-05-07T09:44:14;2.95;;;1.95;;
7193;SDS011;3638;48.820;9.244;2023-05-07T09:46:42;2.83;;;2.08;;
7193;SDS011;3638;48.820;9.244;2023-05-07T09:49:11;1.85;;;1.60;;
7193;SDS011;3638;48.820;9.244;2023-05-07T09:51:45;3.10;;;2.15;;
7193;SDS011;3638;48.820;9.244;2023-05-07T09:54:15;2.42;;;1.95;;
7193;SDS011;3638;48.820;9.244;2023-05-07T09:56:44;1.95;;;1.73;;
7193;SDS011;3638;48.820;9.244;2023-05-07T09:59:12;2.35;;;2.15;;
7193;SDS011;3638;48.820;9.244;2023-05-07T10:01:41;2.30;;;2.10;;
7193;SDS011;3638;48.820;9.244;2023-05-07T10:04:09;4.70;;;2.00;;
7193;SDS011;3638;48.820;9.244;2023-05-07T10:06:37;3.25;;;2.15;;
7193;SDS011;3638;48.820;9.244;2023-05-07T10:09:04;4.03;;;2.10;;
7193;SDS011;3638;48.820;9.244;2023-05-07T10:11:32;4.25;;;2.00;;
7193;SDS011;3638;48.820;9.244;2023-05-07T10:14:01;2.83;;;2.08;;
7193;SDS011;3638;48.820;9.244;2023-05-07T10:16:31;2.45;;;2.00;;
7193;SDS011;3638;48.820;9.244;2023-05-07T10:19:01;2.75;;;2.20;;
7193;SDS011;3638;48.820;9.244;2023-05-07T10:21:29;2.75;;;1.90;;
7193;SDS011;3638;48.820;9.244;2023-05-07T10:23:58;2.30;;;1.95;;
7193;SDS011;3638;48.820;9.244;2023-05-07T10:26:27;3.03;;;1.92;;
7193;SDS011;3638;48.820;9.244;2023-05-07T10:28:57;3.35;;;2.15;;
7193;SDS011;3638;48.820;9.244;2023-05-07T10:31:34;2.70;;;2.40;;
7193;SDS011;3638;48.820;9.244;2023-05-07T10:34:32;2.50;;;2.00;;
7193;SDS011;3638;48.820;9.244;2023-05-07T10:37:05;2.58;;;2.10;;
7193;SDS011;3638;48.820;9.244;2023-05-07T10:39:32;5.22;;;2.35;;
7193;SDS011;3638;48.820;9.244;2023-05-07T10:42:07;2.00;;;1.85;;
7193;SDS011;3638;48.820;9.244;2023-05-07T10:44:35;2.60;;;2.20;;
7193;SDS011;3638;48.820;9.244;2023-05-07T10:47:05;2.35;;;2.15;;
7193;SDS011;3638;48.820;9.244;2023-05-07T10:49:34;2.40;;;1.92;;
7193;SDS011;3638;48.820;9.244;2023-05-07T10:52:11;2.65;;;2.17;;
7193;SDS011;3638;48.820;9.244;2023-05-07T10:54:40;4.03;;;1.95;;
7193;SDS011;3638;48.820;9.244;2023-05-07T11:00:03;3.75;;;2.40;;
7193;SDS011;3638;48.820;9.244;2023-05-07T11:03:10;3.22;;;2.40;;
7193;SDS011;3638;48.820;9.244;2023-05-07T11:05:37;2.42;;;2.20;;
7193;SDS011;3638;48.820;9.244;2023-05-07T11:08:04;2.10;;;1.90;;
7193;SDS011;3638;48.820;9.244;2023-05-07T11:10:47;2.97;;;2.00;;
7193;SDS011;3638;48.820;9.244;2023-05-07T11:13:16;2.22;;;1.92;;
7193;SDS011;3638;48.820;9.244;2023-05-07T11:16:20;3.63;;;2.10;;
7193;SDS011;3638;48.820;9.244;2023-05-07T11:18:52;4.10;;;2.15;;
7193;SDS011;3638;48.820;9.244;2023-05-07T11:21:33;3.67;;;2.00;;
7193;SDS011;3638;48.820;9.244;2023-05-07T11:24:01;6.25;;;2.33;;
7193;SDS011;3638;48.820;9.244;2023-05-07T11:26:30;2.20;;;1.92;;
7193;SDS011;3638;48.820;9.244;2023-05-07T11:29:10;3.50;;;2.42;;
7193;SDS011;3638;48.820;9.244;2023-05-07T11:31:39;4.15;;;3.08;;
7193;SDS011;3638;48.820;9.244;2023-05-07T11:34:07;2.75;;;2.47;;
7193;SDS011;3638;48.820;9.244;2023-05-07T11:36:35;2.60;;;2.40;;
7193;SDS011;3638;48.820;9.244;2023-05-07T11:39:22;2.47;;;2.10;;
7193;SDS011;3638;48.820;9.244;2023-05-07T11:41:53;2.33;;;2.10;;
7193;SDS011;3638;48.820;9.244;2023-05-07T11:44:20;3.15;;;2.20;;
7193;SDS011;3638;48.820;9.244;2023-05-07T11:46:53;2.22;;;2.00;;
7193;SDS011;3638;48.820;9.244;2023-05-07T11:49:20;2.83;;;2.13;;
7193;SDS011;3638;48.820;9.244;2023-05-07T11:51:51;2.33;;;2.08;;
7193;SDS011;3638;48.820;9.244;2023-05-07T11:54:18;2.10;;;1.90;;
7193;SDS011;3638;48.820;9.244;2023-05-07T11:56:46;2.20;;;2.00;;
7193;SDS011;3638;48.820;9.244;2023-05-07T11:59:17;2.55;;;2.10;;
7193;SDS011;3638;48.820;9.244;2023-05-07T12:01:46;2.42;;;1.90;;
7193;SDS011;3638;48.820;9.244;2023-05-07T12:04:16;3.63;;;2.00;;
7193;SDS011;3638;48.820;9.244;2023-05-07T12:06:46;2.90;;;2.10;;
7193;SDS011;3638;48.820;9.244;2023-05-07T12:09:13;1.90;;;1.70;;
7193;SDS011;3638;48.820;9.244;2023-05-07T12:11:40;2.03;;;1.88;;
7193;SDS011;3638;48.820;9.244;2023-05-07T12:14:12;2.42;;;1.85;;
7193;SDS011;3638;48.820;9.244;2023-05-07T12:16:41;2.33;;;2.10;;
7193;SDS011;3638;48.820;9.244;2023-05-07T12:19:08;2.60;;;2.10;;
7193;SDS011;3638;48.820;9.244;2023-05-07T12:21:38;2.50;;;1.98;;
7193;SDS011;3638;48.820;9.244;2023-05-07T12:24:07;3.05;;;1.90;;
7193;SDS011;3638;48.820;9.244;2023-05-07T12:26:37;2.13;;;1.92;;
7193;SDS011;3638;48.820;9.244;2023-05-07T12:29:05;2.60;;;2.40;;
7193;SDS011;3638;48.820;9.244;2023-05-07T12:31:32;2.28;;;1.70;;
7193;SDS011;3638;48.820;9.244;2023-05-07T12:33:59;3.45;;;2.13;;
7193;SDS011;3638;48.820;9.244;2023-05-07T12:36:27;4.07;;;2.33;;
7193;SDS011;3638;48.820;9.244;2023-05-07T12:39:05;2.25;;;2.05;;
7193;SDS011;3638;48.820;9.244;2023-05-07T12:41:35;4.03;;;2.13;;
7193;SDS011;3638;48.820;9.244;2023-05-07T12:44:23;3.28;;;2.58;;
7193;SDS011;3638;48.820;9.244;2023-05-07T12:47:01;4.20;;;2.60;;
7193;SDS011;3638;48.820;9.244;2023-05-07T12:49:29;3.40;;;2.70;;
7193;SDS011;3638;48.820;9.244;2023-05-07T12:51:58;3.42;;;2.75;;
7193;SDS011;3638;48.820;9.244;2023-05-07T12:54:28;4.97;;;3.00;;
7193;SDS011;3638;48.820;9.244;2023-05-07T12:57:02;8.98;;;3.53;;
7193;SDS011;3638;48.820;9.244;2023-05-07T12:59:31;4.90;;;2.78;;
7193;SDS011;3638;48.820;9.244;2023-05-07T13:02:02;4.78;;;3.10;;
7193;SDS011;3638;48.820;9.244;2023-05-07T13:04:38;4.07;;;2.92;;
7193;SDS011;3638;48.820;9.244;2023-05-07T13:07:16;4.63;;;3.60;;
7193;SDS011;3638;48.820;9.244;2023-05-07T13:09:46;6.53;;;3.63;;
7193;SDS011;3638;48.820;9.244;2023-05-07T13:12:15;5.82;;;4.20;;
7193;SDS011;3638;48.820;9.244;2023-05-07T13:14:42;7.35;;;3.50;;
7193;SDS011;3638;48.820;9.244;2023-05-07T13:17:08;5.10;;;3.45;;
7193;SDS011;3638;48.820;9.244;2023-05-07T13:19:35;4.35;;;3.10;;
7193;SDS011;3638;48.820;9.244;2023-05-07T13:22:03;4.30;;;3.05;;
7193;SDS011;3638;48.820;9.244;2023-05-07T13:24:35;4.25;;;2.60;;
7193;SDS011;3638;48.820;9.244;2023-05-07T13:27:02;3.17;;;2.30;;
7193;SDS011;3638;48.820;9.244;2023-05-07T13:29:45;5.10;;;2.75;;
7193;SDS011;3638;48.820;9.244;2023-05-07T13:32:12;5.53;;;2.70;;
7193;SDS011;3638;48.820;9.244;2023-05-07T13:34:39;6.57;;;3.10;;
7193;SDS011;3638;48.820;9.244;2023-05-07T13:37:06;6.10;;;2.60;;
7193;SDS011;3638;48.820;9.244;2023-05-07T13:39:33;5.07;;;2.50;;
7193;SDS011;3638;48.820;9.244;2023-05-07T13:42:01;3.58;;;2.05;;
7193;SDS011;3638;48.820;9.244;2023-05-07T13:44:32;5.65;;;2.38;;
7193;SDS011;3638;48.820;9.244;2023-05-07T13:47:01;3.85;;;2.00;;
7193;SDS011;3638;48.820;9.244;2023-05-07T13:49:28;6.68;;;2.00;;
7193;SDS011;3638;48.820;9.244;2023-05-07T13:51:55;3.22;;;1.63;;
7193;SDS011;3638;48.820;9.244;2023-05-07T13:54:22;1.83;;;1.70;;
7193;SDS011;3638;48.820;9.244;2023-05-07T13:56:50;2.22;;;1.88;;
7193;SDS011;3638;48.820;9.244;2023-05-07T13:59:17;2.42;;;1.70;;
7193;SDS011;3638;48.820;9.244;2023-05-07T14:01:44;4.57;;;2.10;;
7193;SDS011;3638;48.820;9.244;2023-05-07T14:04:11;2.90;;;2.30;;
7193;SDS011;3638;48.820;9.244;2023-05-07T14:06:38;2.55;;;1.83;;
7193;SDS011;3638;48.820;9.244;2023-05-07T14:09:05;7.28;;;2.70;;
7193;SDS011;3638;48.820;9.244;2023-05-07T14:11:32;5.32;;;2.53;;
7193;SDS011;3638;48.820;9.244;2023-05-07T14:14:01;5.53;;;4.13;;
7193;SDS011;3638;48.820;9.244;2023-05-07T14:16:28;4.28;;;3.00;;
7193;SDS011;3638;48.820;9.244;2023-05-07T14:18:55;7.18;;;4.00;;
7193;SDS011;3638;48.820;9.244;2023-05-07T14:21:22;5.03;;;2.55;;
7193;SDS011;3638;48.820;9.244;2023-05-07T14:23:49;4.10;;;2.60;;
7193;SDS011;3638;48.820;9.244;2023-05-07T14:26:16;4.20;;;3.00;;
7193;SDS011;3638;48.820;9.244;2023-05-07T14:28:44;3.88;;;2.67;;
7193;SDS011;3638;48.820;9.244;2023-05-07T14:31:13;2.60;;;2.40;;
7193;SDS011;3638;48.820;9.244;2023-05-07T14:33:40;3.38;;;2.35;;
7193;SDS011;3638;48.820;9.244;2023-05-07T14:36:07;5.13;;;2.88;;
7193;SDS011;3638;48.820;9.244;2023-05-07T14:38:34;4.07;;;2.65;;
7193;SDS011;3638;48.820;9.244;2023-05-07T14:41:05;5.75;;;3.10;;
7193;SDS011;3638;48.820;9.244;2023-05-07T14:43:32;4.63;;;3.10;;
7193;SDS011;3638;48.820;9.244;2023-05-07T14:45:59;3.28;;;2.85;;
7193;SDS011;3638;48.820;9.244;2023-05-07T14:48:27;4.22;;;2.88;;
7193;SDS011;3638;48.820;9.244;2023-05-07T14:50:54;3.95;;;2.95;;
7193;SDS011;3638;48.820;9.244;2023-05-07T14:53:21;3.20;;;2.90;;
7193;SDS011;3638;48.820;9.244;2023-05-07T14:55:48;4.28;;;2.90;;
7193;SDS011;3638;48.820;9.244;2023-05-07T14:58:15;4.07;;;3.20;;
7193;SDS011;3638;48.820;9.244;2023-05-07T15:00:45;4.30;;;2.60;;
7193;SDS011;3638;48.820;9.244;2023-05-07T15:03:16;2.67;;;2.47;;
7193;SDS011;3638;48.820;9.244;2023-05-07T15:05:45;5.55;;;2.92;;
7193;SDS011;3638;48.820;9.244;2023-05-07T15:08:12;5.57;;;3.05;;
7193;SDS011;3638;48.820;9.244;2023-05-07T15:10:39;5.53;;;2.97;;
7193;SDS011;3638;48.820;9.244;2023-05-07T15:13:06;3.47;;;2.67;;
7193;SDS011;3638;48.820;9.244;2023-05-07T15:15:34;3.22;;;2.70;;
7193;SDS011;3638;48.820;9.244;2023-05-07T15:18:01;4.32;;;3.13;;
7193;SDS011;3638;48.820;9.244;2023-05-07T15:20:29;4.43;;;3.38;;
7193;SDS011;3638;48.820;9.244;2023-05-07T15:22:57;3.88;;;2.78;;
7193;SDS011;3638;48.820;9.244;2023-05-07T15:25:25;4.00;;;2.88;;